Time;durP1;ratioP1;P1;durP2;ratioP2;P2;SDS_P1;SDS_P2;PMS_P1;PMS_P2;Temp;Humidity;BMP_temperature;BMP_pressure;BME280_temperature;BME280_humidity;BME280_pressure;Samples;Min_cycle;Max_cycle;Signal;HPM_P1;HPM_P2
2023/09/10 00:02:02;;;;;;;41.00;34.72;;;;;;;;;;5093637;28;20086;-71
2023/09/10 00:04:28;;;;;;;44.53;37.83;;;19.70;99.90;;;;;;5105773;28;20048;-71
2023/09/10 00:06:54;;;;;;;50.67;36.50;;;19.80;99.90;;;;;;5106844;28;20050;-71
2023/09/10 00:09:20;;;;;;;42.97;36.05;;;20.80;99.90;;;;;;5098815;28;20032;-70
2023/09/10 00:11:46;;;;;;;49.35;39.40;;;21.40;99.90;;;;;;5099257;28;20028;-71
2023/09/10 00:14:13;;;;;;;44.03;36.75;;;20.20;99.90;;;;;;5116126;28;20031;-76
2023/09/10 00:16:38;;;;;;;47.33;38.63;;;19.50;99.90;;;;;;5109930;28;20389;-71
2023/09/10 00:19:04;;;;;;;44.38;38.63;;;;;;;;;;5079482;28;20040;-70
2023/09/10 00:21:31;;;;;;;42.28;35.42;;;21.50;99.90;;;;;;5097643;28;20441;-70
2023/09/10 00:23:56;;;;;;;49.28;39.65;;;19.30;99.90;;;;;;5081271;28;20051;-71
2023/09/10 00:26:24;;;;;;;41.25;36.22;;;21.20;99.90;;;;;;5080434;28;20044;-70
2023/09/10 00:28:51;;;;;;;45.38;38.35;;;20.90;99.90;;;;;;5096402;28;20048;-76
2023/09/10 00:31:17;;;;;;;42.55;36.58;;;21.20;99.90;;;;;;5096659;28;20069;-75
2023/09/10 00:33:43;;;;;;;44.95;37.70;;;;;;;;;;5096065;28;20040;-76
2023/09/10 00:36:10;;;;;;;45.42;37.05;;;19.10;99.90;;;;;;5062792;28;20104;-76
2023/09/10 00:38:36;;;;;;;40.28;33.80;;;21.30;99.90;;;;;;5102904;28;20446;-75
2023/09/10 00:41:06;;;;;;;41.70;35.55;;;21.20;99.90;;;;;;5082188;28;20074;-76
2023/09/10 00:43:31;;;;;;;42.47;35.72;;;21.20;99.90;;;;;;5081881;28;20071;-75
2023/09/10 00:45:57;;;;;;;45.05;37.15;;;21.00;99.90;;;;;;5098811;28;20083;-75
2023/09/10 00:48:23;;;;;;;46.75;38.80;;;;;;;;;;5099013;28;20044;-75
2023/09/10 00:50:50;;;;;;;43.83;35.65;;;19.10;99.90;;;;;;5098660;28;20048;-76
2023/09/10 00:53:16;;;;;;;44.53;34.38;;;;;;;;;;5065116;28;20043;-77
2023/09/10 00:55:41;;;;;;;45.90;33.38;;;19.00;99.90;;;;;;5081722;28;20043;-76
2023/09/10 00:58:08;;;;;;;46.25;35.95;;;19.00;99.90;;;;;;5098558;28;20100;-76
2023/09/10 01:00:34;;;;;;;47.83;38.17;;;21.00;99.90;;;;;;5116825;28;20050;-76
2023/09/10 01:03:00;;;;;;;45.17;36.78;;;18.90;99.90;;;;;;5098585;28;20035;-76
2023/09/10 01:05:26;;;;;;;43.00;35.47;;;19.50;99.90;;;;;;5098396;28;20039;-76
2023/09/10 01:07:53;;;;;;;45.83;38.10;;;18.80;99.90;;;;;;5098748;28;20088;-76
2023/09/10 01:10:22;;;;;;;42.10;33.17;;;18.90;99.90;;;;;;5098627;28;20102;-76
2023/09/10 01:12:48;;;;;;;42.58;37.63;;;;;;;;;;5098331;28;20488;-76
2023/09/10 01:15:46;;;;;;;44.72;37.35;;;19.90;99.90;;;;;;5098200;28;20050;-76
2023/09/10 01:18:29;;;;;;;45.90;36.03;;;20.60;99.90;;;;;;5093465;28;20075;-75
2023/09/10 01:21:21;;;;;;;47.42;36.85;;;20.00;99.90;;;;;;5098343;28;20130;-76
2023/09/10 01:23:50;;;;;;;48.03;36.30;;;18.70;99.90;;;;;;5098314;28;20082;-76
2023/09/10 01:26:15;;;;;;;47.53;37.97;;;20.80;99.90;;;;;;5097986;28;20123;-76
2023/09/10 01:28:41;;;;;;;49.58;40.03;;;20.80;99.90;;;;;;5097112;28;20436;-76
2023/09/10 01:31:07;;;;;;;44.75;36.88;;;19.00;99.90;;;;;;5081066;28;20084;-76
2023/09/10 01:33:35;;;;;;;48.55;38.72;;;19.90;99.90;;;;;;5080937;28;20070;-76
2023/09/10 01:36:28;;;;;;;42.80;34.25;;;20.20;99.90;;;;;;5097888;28;20047;-76
2023/09/10 01:39:03;;;;;;;45.92;36.10;;;19.70;99.90;;;;;;5097764;28;20063;-76
2023/09/10 01:41:32;;;;;;;43.90;36.97;;;18.90;99.90;;;;;;5098163;28;20458;-76
2023/09/10 01:43:58;;;;;;;45.47;37.33;;;20.70;99.90;;;;;;5080856;28;20447;-76
2023/09/10 01:46:26;;;;;;;45.95;35.92;;;20.60;99.90;;;;;;5097831;28;20103;-76
2023/09/10 01:48:52;;;;;;;44.58;36.88;;;19.50;99.90;;;;;;5097988;28;20165;-75
2023/09/10 01:51:18;;;;;;;43.85;35.03;;;;;;;;;;5097808;28;20396;-76
2023/09/10 01:53:46;;;;;;;49.38;37.13;;;20.70;99.90;;;;;;5080735;28;20078;-76
2023/09/10 01:56:12;;;;;;;46.10;37.97;;;20.50;99.90;;;;;;5080851;28;20122;-76
2023/09/10 01:58:38;;;;;;;44.38;35.15;;;20.60;99.90;;;;;;5097850;28;20126;-76
2023/09/10 02:01:06;;;;;;;48.38;38.13;;;19.60;99.90;;;;;;5080642;28;20177;-76
2023/09/10 02:03:31;;;;;;;43.15;34.05;;;20.70;99.90;;;;;;5097757;28;20095;-76
2023/09/10 02:06:00;;;;;;;47.60;37.13;;;;;;;;;;5080537;28;20050;-76
2023/09/10 02:08:26;;;;;;;41.92;34.20;;;20.10;99.90;;;;;;5080395;28;20119;-76
2023/09/10 02:10:52;;;;;;;50.90;40.47;;;;;;;;;;5115745;28;20120;-76
2023/09/10 02:13:17;;;;;;;48.92;39.13;;;18.40;99.90;;;;;;5097115;28;20122;-76
2023/09/10 02:15:43;;;;;;;49.70;39.60;;;;;;;;;;5096944;28;20119;-76
2023/09/10 02:18:09;;;;;;;50.70;39.72;;;;;;;;;;5097457;28;20505;-76
2023/09/10 02:20:36;;;;;;;50.15;39.30;;;20.00;99.90;;;;;;5097086;28;20092;-76
2023/09/10 02:23:02;;;;;;;48.95;38.55;;;19.30;99.90;;;;;;5096929;28;20040;-77
2023/09/10 02:25:28;;;;;;;51.03;38.05;;;18.60;99.90;;;;;;5096861;28;20093;-77
2023/09/10 02:27:54;;;;;;;52.55;41.38;;;20.20;99.90;;;;;;5080160;28;20418;-77
2023/09/10 02:30:20;;;;;;;57.25;43.30;;;19.50;99.90;;;;;;5080135;28;20468;-76
2023/09/10 02:32:46;;;;;;;54.00;41.08;;;;;;;;;;5097050;28;20468;-76
2023/09/10 02:35:12;;;;;;;51.45;40.28;;;18.60;99.90;;;;;;5080042;28;20072;-77
2023/09/10 02:37:37;;;;;;;52.53;39.03;;;18.20;99.90;;;;;;5096690;28;20045;-78
2023/09/10 02:40:06;;;;;;;49.85;39.80;;;19.80;99.90;;;;;;5062644;28;20055;-76
2023/09/10 02:42:32;;;;;;;53.42;41.15;;;19.90;99.90;;;;;;5096640;28;20066;-76
2023/09/10 02:44:58;;;;;;;52.47;40.97;;;;;;;;;;5096593;28;20036;-77
2023/09/10 02:47:25;;;;;;;51.97;42.28;;;20.10;99.90;;;;;;5096775;28;20035;-77
2023/09/10 02:49:51;;;;;;;54.28;41.40;;;18.70;99.90;;;;;;5096447;28;20505;-76
2023/09/10 02:52:17;;;;;;;50.35;37.78;;;;;;;;;;5096577;28;20040;-76
2023/09/10 02:54:43;;;;;;;54.67;41.75;;;19.50;99.90;;;;;;5096569;28;20047;-76
2023/09/10 02:57:08;;;;;;;47.08;36.55;;;20.40;99.90;;;;;;5096553;28;20128;-76
2023/09/10 02:59:34;;;;;;;51.83;40.85;;;;;;;;;;5096532;28;20395;-76
2023/09/10 03:02:00;;;;;;;51.80;41.03;;;19.80;99.90;;;;;;5079473;28;20039;-76
2023/09/10 03:04:26;;;;;;;54.13;40.03;;;;;;;;;;5062676;28;20062;-77
2023/09/10 03:06:52;;;;;;;50.10;39.42;;;;;;;;;;5079382;28;20490;-76
2023/09/10 03:09:18;;;;;;;47.30;39.13;;;18.20;99.90;;;;;;5096133;28;20074;-76
2023/09/10 03:11:45;;;;;;;41.67;34.28;;;19.40;99.90;;;;;;5079062;28;20078;-76
2023/09/10 03:14:11;;;;;;;47.25;37.95;;;20.00;99.90;;;;;;5079249;28;20043;-77
2023/09/10 03:16:42;;;;;;;42.80;34.92;;;19.90;99.90;;;;;;5095957;28;20553;-76
2023/09/10 03:19:07;;;;;;;41.30;33.90;;;19.50;99.90;;;;;;5096477;28;20040;-77
2023/09/10 03:21:35;;;;;;;42.47;32.40;;;19.70;99.90;;;;;;5096065;28;20373;-77
2023/09/10 03:24:01;;;;;;;39.90;33.88;;;;;;;;;;5095708;28;20055;-76
2023/09/10 03:26:27;;;;;;;38.00;30.98;;;18.00;99.90;;;;;;5096136;28;20047;-76
2023/09/10 03:28:53;;;;;;;42.22;33.05;;;;;;;;;;5095580;28;20399;-70
2023/09/10 03:31:19;;;;;;;36.72;29.92;;;18.00;99.90;;;;;;5079264;28;20433;-71
2023/09/10 03:33:44;;;;;;;38.10;30.50;;;19.70;99.90;;;;;;5079034;28;20036;-71
2023/09/10 03:36:11;;;;;;;40.20;32.70;;;;;;;;;;5096376;28;20047;-71
2023/09/10 03:38:36;;;;;;;42.03;32.78;;;18.60;99.90;;;;;;5101773;28;20032;-72
2023/09/10 03:41:02;;;;;;;40.03;32.65;;;18.00;99.90;;;;;;5110240;28;20048;-71
2023/09/10 03:43:28;;;;;;;39.97;31.42;;;;;;;;;;5078875;28;20058;-71
2023/09/10 03:45:54;;;;;;;39.78;32.63;;;17.70;99.90;;;;;;5095870;28;20035;-71
2023/09/10 03:48:20;;;;;;;44.35;32.05;;;;;;;;;;5079277;28;20066;-72
2023/09/10 03:50:46;;;;;;;42.22;32.83;;;;;;;;;;5102527;28;20030;-71
2023/09/10 03:53:12;;;;;;;42.28;33.60;;;;;;;;;;5117934;28;20079;-71
2023/09/10 03:55:40;;;;;;;38.85;31.27;;;19.50;99.90;;;;;;5118443;28;20044;-71
2023/09/10 03:58:06;;;;;;;44.40;33.22;;;;;;;;;;5118362;28;20055;-71
2023/09/10 04:00:33;;;;;;;37.70;30.58;;;17.80;99.90;;;;;;5118245;28;20046;-72
2023/09/10 04:02:59;;;;;;;37.30;28.40;;;18.50;99.90;;;;;;5106895;28;20051;-72
2023/09/10 04:05:25;;;;;;;42.00;30.95;;;18.40;99.90;;;;;;5095321;28;20589;-71
2023/09/10 04:07:51;;;;;;;39.25;28.77;;;18.10;99.90;;;;;;5095379;28;20039;-71
2023/09/10 04:10:17;;;;;;;34.55;27.55;;;19.60;99.90;;;;;;5095288;28;20097;-71
2023/09/10 04:12:42;;;;;;;41.97;30.42;;;18.90;99.90;;;;;;5078696;28;20039;-71
2023/09/10 04:15:09;;;;;;;36.35;29.65;;;19.70;99.90;;;;;;5095159;28;20074;-71
2023/09/10 04:17:34;;;;;;;36.95;30.48;;;19.80;99.90;;;;;;5078512;28;20044;-71
2023/09/10 04:20:00;;;;;;;41.10;31.33;;;19.70;99.90;;;;;;5095051;28;20084;-71
2023/09/10 04:22:26;;;;;;;38.22;30.27;;;19.80;99.90;;;;;;5095352;28;20035;-71
2023/09/10 04:24:52;;;;;;;39.20;31.70;;;17.80;99.90;;;;;;5095163;28;20756;-71
2023/09/10 04:27:18;;;;;;;37.50;30.00;;;18.90;99.90;;;;;;5095293;28;20046;-71
2023/09/10 04:29:44;;;;;;;42.10;31.77;;;;;;;;;;5078279;28;20059;-71
2023/09/10 04:32:10;;;;;;;42.92;32.28;;;19.70;99.90;;;;;;5078234;28;20039;-71
2023/09/10 04:34:36;;;;;;;40.78;31.60;;;;;;;;;;5078158;28;20044;-71
2023/09/10 04:37:05;;;;;;;40.30;32.55;;;18.80;99.90;;;;;;5094850;28;20043;-71
2023/09/10 04:39:30;;;;;;;36.03;30.10;;;18.00;99.90;;;;;;5078577;28;20108;-71
2023/09/10 04:41:56;;;;;;;37.67;29.95;;;18.80;99.90;;;;;;5078033;28;20442;-71
2023/09/10 04:44:22;;;;;;;36.22;28.67;;;19.50;99.90;;;;;;5094988;28;20043;-71
2023/09/10 04:46:48;;;;;;;36.83;30.42;;;18.60;99.90;;;;;;5078324;28;20522;-71
2023/09/10 04:49:13;;;;;;;37.95;30.85;;;19.50;99.90;;;;;;5078277;28;20039;-71
2023/09/10 04:51:39;;;;;;;35.15;28.63;;;;;;;;;;5094983;28;20039;-71
2023/09/10 04:54:05;;;;;;;36.63;29.40;;;18.80;99.90;;;;;;5078060;28;20052;-71
2023/09/10 04:56:31;;;;;;;32.47;25.60;;;18.90;99.90;;;;;;5094964;28;20131;-70
2023/09/10 04:58:57;;;;;;;32.25;26.58;;;17.70;99.90;;;;;;5078201;28;20046;-70
2023/09/10 05:01:23;;;;;;;30.90;25.92;;;;;;;;;;5094990;28;20040;-70
2023/09/10 05:03:48;;;;;;;27.38;24.35;;;19.20;99.90;;;;;;5096545;28;20040;-71
2023/09/10 05:06:15;;;;;;;30.05;25.88;;;;;;;;;;5116839;28;20119;-71
2023/09/10 05:08:40;;;;;;;28.23;23.60;;;17.80;99.90;;;;;;5098783;28;20039;-70
2023/09/10 05:11:06;;;;;;;26.92;23.85;;;;;;;;;;5098615;28;20035;-71
2023/09/10 05:13:32;;;;;;;26.45;23.63;;;17.50;99.90;;;;;;5081800;28;20039;-71
2023/09/10 05:15:58;;;;;;;25.08;22.20;;;;;;;;;;5098530;28;20069;-70
2023/09/10 05:18:25;;;;;;;27.27;23.17;;;17.30;99.90;;;;;;5081559;28;20043;-71
2023/09/10 05:20:52;;;;;;;25.25;22.58;;;17.60;99.90;;;;;;5098197;28;20047;-70
2023/09/10 05:23:22;;;;;;;26.38;23.58;;;18.30;99.90;;;;;;5098355;28;20051;-70
2023/09/10 05:25:49;;;;;;;26.80;21.63;;;17.20;99.90;;;;;;5098342;28;20039;-70
2023/09/10 05:28:15;;;;;;;24.58;21.92;;;17.90;99.90;;;;;;5098219;28;20036;-71
2023/09/10 05:30:41;;;;;;;26.15;23.38;;;17.20;99.90;;;;;;5098117;28;20043;-71
2023/09/10 05:33:07;;;;;;;29.50;25.90;;;17.90;99.90;;;;;;5098034;28;20078;-71
2023/09/10 05:35:33;;;;;;;29.73;24.98;;;;;;;;;;5098117;28;20084;-71
2023/09/10 05:37:58;;;;;;;30.95;26.17;;;18.70;99.90;;;;;;5097930;28;20051;-70
2023/09/10 05:40:25;;;;;;;32.13;25.08;;;17.30;99.90;;;;;;5077620;28;20052;-76
2023/09/10 05:42:51;;;;;;;28.60;24.48;;;17.90;99.90;;;;;;5094678;28;20055;-70
2023/09/10 05:45:17;;;;;;;29.17;25.75;;;18.90;99.90;;;;;;5094443;28;20392;-76
2023/09/10 05:47:43;;;;;;;28.02;24.40;;;18.10;99.90;;;;;;5077707;28;20036;-76
2023/09/10 05:50:09;;;;;;;30.27;25.35;;;18.40;99.90;;;;;;5094360;28;20158;-76
2023/09/10 05:52:35;;;;;;;35.30;26.92;;;17.60;99.90;;;;;;5094466;28;20089;-70
2023/09/10 05:55:01;;;;;;;31.98;26.15;;;;;;;;;;5094692;28;20075;-71
2023/09/10 05:57:27;;;;;;;32.17;26.83;;;17.40;99.90;;;;;;5094294;28;20051;-71
2023/09/10 05:59:53;;;;;;;32.58;27.00;;;17.30;99.90;;;;;;5095502;28;20040;-76
2023/09/10 06:02:18;;;;;;;27.73;24.63;;;17.80;99.90;;;;;;5094249;28;20377;-77
2023/09/10 06:04:44;;;;;;;31.73;26.08;;;18.90;99.90;;;;;;5095395;28;20044;-71
2023/09/10 06:07:10;;;;;;;39.90;27.92;;;18.90;99.90;;;;;;5077240;28;20036;-71
2023/09/10 06:09:36;;;;;;;31.40;27.73;;;18.40;99.90;;;;;;5077527;28;20032;-71
2023/09/10 06:12:02;;;;;;;35.90;28.60;;;;;;;;;;5077437;28;20492;-70
2023/09/10 06:14:30;;;;;;;34.47;28.45;;;18.00;99.90;;;;;;5093602;28;20496;-70
2023/09/10 06:16:56;;;;;;;36.75;28.98;;;17.50;99.90;;;;;;5093782;28;20322;-70
2023/09/10 06:19:22;;;;;;;40.67;30.52;;;;;;;;;;5093955;28;20036;-71
2023/09/10 06:21:48;;;;;;;40.25;31.08;;;;;;;;;;5094747;28;20489;-77
2023/09/10 06:24:15;;;;;;;40.75;33.50;;;18.50;99.90;;;;;;5094216;28;20044;-76
2023/09/10 06:26:41;;;;;;;37.65;30.83;;;18.20;99.90;;;;;;5094320;28;20036;-75
2023/09/10 06:29:07;;;;;;;40.13;31.23;;;19.60;99.90;;;;;;5077523;28;20118;-77
2023/09/10 06:31:32;;;;;;;43.15;32.38;;;18.20;99.90;;;;;;5060597;28;20122;-76
2023/09/10 06:33:58;;;;;;;44.25;34.38;;;;;;;;;;5077497;28;20043;-76
2023/09/10 06:36:25;;;;;;;40.13;32.33;;;19.40;99.90;;;;;;5077083;28;20492;-70
2023/09/10 06:38:50;;;;;;;37.78;29.95;;;20.00;99.90;;;;;;5077378;28;20044;-77
2023/09/10 06:41:17;;;;;;;51.80;34.97;;;;;;;;;;5093600;28;20557;-71
2023/09/10 06:43:43;;;;;;;42.15;34.78;;;19.80;99.90;;;;;;5093468;28;20040;-71
2023/09/10 06:46:10;;;;;;;48.47;36.50;;;20.00;99.90;;;;;;5093276;28;20400;-76
2023/09/10 06:48:36;;;;;;;42.50;33.22;;;;;;;;;;5093884;28;20119;-76
2023/09/10 06:51:02;;;;;;;47.30;36.45;;;18.50;99.90;;;;;;5093549;28;20040;-76
2023/09/10 06:53:29;;;;;;;45.15;36.15;;;19.30;99.90;;;;;;5094772;28;20040;-76
2023/09/10 06:55:55;;;;;;;47.67;36.28;;;;;;;;;;5093200;28;20044;-77
2023/09/10 06:58:21;;;;;;;50.10;38.33;;;20.10;99.90;;;;;;5093493;28;20389;-77
2023/09/10 07:00:47;;;;;;;47.72;36.85;;;20.30;99.90;;;;;;5093169;28;20050;-77
2023/09/10 07:03:13;;;;;;;52.65;38.42;;;18.30;99.90;;;;;;5093235;28;20110;-76
2023/09/10 07:05:42;;;;;;;45.17;37.13;;;18.40;99.90;;;;;;5093424;28;20563;-76
2023/09/10 07:08:12;;;;;;;47.63;35.72;;;19.80;99.90;;;;;;5093413;28;20036;-76
2023/09/10 07:10:39;;;;;;;51.55;36.63;;;20.20;99.90;;;;;;5076952;28;20047;-76
2023/09/10 07:13:06;;;;;;;50.95;37.08;;;20.10;99.90;;;;;;5093424;28;20373;-75
2023/09/10 07:15:32;;;;;;;47.10;35.00;;;20.50;99.90;;;;;;5093343;28;20147;-76
2023/09/10 07:17:58;;;;;;;52.03;38.33;;;;;;;;;;5093949;28;20048;-76
2023/09/10 07:20:24;;;;;;;48.22;37.65;;;18.50;99.90;;;;;;5093127;28;20036;-77
2023/09/10 07:22:50;;;;;;;47.10;35.90;;;20.10;99.90;;;;;;5093584;28;20093;-71
2023/09/10 07:25:15;;;;;;;44.95;35.65;;;19.60;99.90;;;;;;5094864;28;20048;-70
2023/09/10 07:27:41;;;;;;;49.63;34.30;;;20.30;99.90;;;;;;5076394;28;20044;-71
2023/09/10 07:30:07;;;;;;;53.22;37.65;;;20.30;99.90;;;;;;5076962;28;20126;-71
2023/09/10 07:32:33;;;;;;;48.42;35.20;;;;;;;;;;5095191;28;20563;-71
2023/09/10 07:34:59;;;;;;;50.13;38.40;;;20.10;99.90;;;;;;5093719;28;20036;-71
2023/09/10 07:37:25;;;;;;;53.38;38.95;;;;;;;;;;5096473;28;20394;-76
2023/09/10 07:39:51;;;;;;;48.80;36.72;;;;;;;;;;5098043;28;20036;-76
2023/09/10 07:42:17;;;;;;;52.13;39.50;;;20.50;99.90;;;;;;5115273;28;20052;-76
2023/09/10 07:44:43;;;;;;;50.92;37.78;;;19.80;99.90;;;;;;5098504;28;20077;-76
2023/09/10 07:47:09;;;;;;;50.60;37.00;;;20.60;99.90;;;;;;5098597;28;20036;-76
2023/09/10 07:49:35;;;;;;;50.58;34.63;;;;;;;;;;5115048;28;20035;-75
2023/09/10 07:52:04;;;;;;;44.95;32.47;;;19.30;99.90;;;;;;5115032;28;20028;-76
2023/09/10 07:54:30;;;;;;;48.33;37.30;;;20.10;99.90;;;;;;5097883;28;20140;-76
2023/09/10 07:56:56;;;;;;;45.25;35.30;;;20.80;99.90;;;;;;5092325;28;20032;-71
2023/09/10 07:59:22;;;;;;;54.33;40.55;;;19.40;99.90;;;;;;5093351;28;20047;-71
2023/09/10 08:01:48;;;;;;;52.30;37.95;;;21.40;99.90;;;;;;5092003;28;20067;-71
2023/09/10 08:04:13;;;;;;;46.55;34.83;;;21.40;99.90;;;;;;5091726;28;20036;-71
2023/09/10 08:06:40;;;;;;;49.92;37.97;;;;;;;;;;5092148;28;20040;-71
2023/09/10 08:09:06;;;;;;;48.53;34.85;;;21.30;99.90;;;;;;5091996;28;20046;-71
2023/09/10 08:11:32;;;;;;;46.35;33.25;;;20.00;99.90;;;;;;5074949;28;20426;-71
2023/09/10 08:13:58;;;;;;;44.25;34.15;;;;;;;;;;5091832;28;20436;-71
2023/09/10 08:16:24;;;;;;;49.65;35.85;;;;;;;;;;5092005;28;20089;-70
2023/09/10 08:18:50;;;;;;;42.53;32.90;;;20.40;99.90;;;;;;5091818;28;20043;-76
2023/09/10 08:21:16;;;;;;;46.53;33.90;;;20.50;99.90;;;;;;5074979;28;20040;-76
2023/09/10 08:23:42;;;;;;;49.83;35.47;;;19.90;99.90;;;;;;5091722;28;20044;-77
2023/09/10 08:26:08;;;;;;;43.70;32.38;;;20.10;99.90;;;;;;5074568;28;20043;-77
2023/09/10 08:28:34;;;;;;;44.30;34.63;;;21.80;99.90;;;;;;5074769;28;20060;-76
2023/09/10 08:31:00;;;;;;;43.78;31.92;;;;;;;;;;5074714;28;20044;-76
2023/09/10 08:33:26;;;;;;;43.40;32.60;;;21.80;99.90;;;;;;5092031;28;20464;-76
2023/09/10 08:35:54;;;;;;;43.08;31.90;;;21.40;99.90;;;;;;5091836;28;20043;-76
2023/09/10 08:38:20;;;;;;;42.65;31.35;;;20.90;99.90;;;;;;5092709;28;20133;-77
2023/09/10 08:40:58;;;;;;;41.22;31.35;;;21.60;99.90;;;;;;5095551;28;20087;-77
2023/09/10 08:43:37;;;;;;;38.35;30.95;;;22.40;99.90;;;;;;5097095;28;20133;-77
2023/09/10 08:46:09;;;;;;;38.70;30.05;;;22.10;99.90;;;;;;5095527;28;20404;-77
2023/09/10 08:48:38;;;;;;;43.53;30.83;;;21.70;99.90;;;;;;5095531;28;20036;-76
2023/09/10 08:51:04;;;;;;;39.35;29.50;;;21.60;99.90;;;;;;5095327;28;20043;-76
2023/09/10 08:53:31;;;;;;;42.28;29.50;;;22.60;99.90;;;;;;5095372;28;20090;-70
2023/09/10 08:55:57;;;;;;;35.55;27.67;;;21.20;99.90;;;;;;5095436;28;20044;-70
2023/09/10 08:58:26;;;;;;;35.35;27.73;;;22.00;99.90;;;;;;5061675;28;20499;-70
2023/09/10 09:00:52;;;;;;;30.83;24.73;;;21.60;99.90;;;;;;5095161;28;20051;-70
2023/09/10 09:03:20;;;;;;;31.48;23.52;;;23.00;99.90;;;;;;5095575;28;20118;-70
2023/09/10 09:05:48;;;;;;;30.05;23.95;;;22.60;99.90;;;;;;5078259;28;20040;-70
2023/09/10 09:08:23;;;;;;;27.77;22.50;;;22.50;99.90;;;;;;5095141;28;20042;-71
2023/09/10 09:10:50;;;;;;;23.35;19.85;;;21.60;99.90;;;;;;5078364;28;20051;-71
2023/09/10 09:13:17;;;;;;;24.38;19.63;;;21.70;99.90;;;;;;5095030;28;20044;-71
2023/09/10 09:15:44;;;;;;;28.77;19.67;;;;;;;;;;5078078;28;20052;-70
2023/09/10 09:18:14;;;;;;;25.80;19.88;;;23.20;99.90;;;;;;5077892;28;20040;-71
2023/09/10 09:20:45;;;;;;;27.17;20.70;;;23.50;99.90;;;;;;5078027;28;20040;-70
2023/09/10 09:23:45;;;;;;;25.15;20.05;;;21.80;99.90;;;;;;5094764;28;20486;-70
2023/09/10 09:26:14;;;;;;;28.80;21.35;;;23.50;99.90;;;;;;5076410;28;20056;-70
2023/09/10 09:28:40;;;;;;;29.75;21.80;;;;;;;;;;5094770;28;20083;-70
2023/09/10 09:31:10;;;;;;;26.35;20.38;;;23.10;99.90;;;;;;5094568;28;20048;-70
2023/09/10 09:33:37;;;;;;;28.08;19.70;;;22.80;99.90;;;;;;5077929;28;20051;-70
2023/09/10 09:36:10;;;;;;;25.95;19.92;;;22.60;99.90;;;;;;5094492;28;20423;-70
2023/09/10 09:38:44;;;;;;;23.90;18.67;;;22.70;99.90;;;;;;5094723;28;20428;-77
2023/09/10 09:41:10;;;;;;;27.52;21.30;;;23.70;99.90;;;;;;5077224;28;20052;-77
2023/09/10 09:43:36;;;;;;;24.92;19.20;;;24.10;99.90;;;;;;5077989;28;20103;-77
2023/09/10 09:46:03;;;;;;;24.95;20.27;;;23.30;99.90;;;;;;5094270;28;20040;-77
2023/09/10 09:48:30;;;;;;;27.35;18.70;;;24.10;99.90;;;;;;5094450;28;20048;-76
2023/09/10 09:50:59;;;;;;;24.80;18.30;;;24.10;99.90;;;;;;5076620;28;20059;-77
2023/09/10 09:53:30;;;;;;;20.60;16.90;;;24.10;99.90;;;;;;5077658;28;20127;-76
2023/09/10 09:56:03;;;;;;;26.35;17.52;;;23.80;99.90;;;;;;5077595;28;20101;-76
2023/09/10 09:58:29;;;;;;;25.77;18.45;;;24.30;99.90;;;;;;5094191;28;20051;-76
2023/09/10 10:00:59;;;;;;;18.60;14.60;;;24.60;99.90;;;;;;5094775;28;20036;-77
2023/09/10 10:03:25;;;;;;;23.00;14.27;;;24.80;99.90;;;;;;5094364;28;20048;-76
2023/09/10 10:05:52;;;;;;;21.75;16.52;;;24.60;99.90;;;;;;5094996;28;20076;-72
2023/09/10 10:08:23;;;;;;;22.17;16.13;;;23.90;99.90;;;;;;5077109;28;20043;-71
2023/09/10 10:10:49;;;;;;;23.58;15.65;;;24.60;99.90;;;;;;5077795;28;20484;-71
2023/09/10 10:13:20;;;;;;;22.33;15.60;;;25.10;99.90;;;;;;5094010;28;20039;-71
2023/09/10 10:15:47;;;;;;;22.03;15.67;;;24.60;99.90;;;;;;5093579;28;20040;-77
2023/09/10 10:18:17;;;;;;;29.13;15.00;;;25.40;99.90;;;;;;5093630;28;20051;-76
2023/09/10 10:20:47;;;;;;;19.38;13.38;;;24.90;99.30;;;;;;5093750;28;20102;-76
2023/09/10 10:23:18;;;;;;;18.38;13.88;;;25.20;99.90;;;;;;5093567;28;20574;-77
2023/09/10 10:25:45;;;;;;;31.98;15.05;;;25.50;99.90;;;;;;5093426;28;20048;-76
2023/09/10 10:28:12;;;;;;;19.33;14.07;;;25.00;99.90;;;;;;5093361;28;20050;-77
2023/09/10 10:30:56;;;;;;;24.60;13.80;;;25.40;99.90;;;;;;5093483;28;20119;-76
2023/09/10 10:33:26;;;;;;;21.85;13.00;;;25.50;99.90;;;;;;5093637;28;20499;-76
2023/09/10 10:36:21;;;;;;;18.88;13.95;;;25.20;97.60;;;;;;5093637;28;20097;-77
2023/09/10 10:38:52;;;;;;;25.95;13.88;;;24.70;99.90;;;;;;5076440;28;20480;-77
2023/09/10 10:41:23;;;;;;;23.00;15.02;;;25.80;99.90;;;;;;5092956;28;20557;-71
2023/09/10 10:44:02;;;;;;;31.08;12.95;;;25.30;99.90;;;;;;5077025;28;20492;-77
2023/09/10 10:46:29;;;;;;;19.67;12.80;;;25.70;98.10;;;;;;5093615;28;20040;-77
2023/09/10 10:48:56;;;;;;;21.48;14.50;;;25.80;99.90;;;;;;5093389;28;20101;-76
2023/09/10 10:51:23;;;;;;;19.98;12.90;;;25.70;99.90;;;;;;5093442;28;20048;-77
2023/09/10 10:53:50;;;;;;;23.35;12.90;;;25.50;99.90;;;;;;5076381;28;20066;-76
2023/09/10 10:56:16;;;;;;;18.15;11.77;;;26.40;98.40;;;;;;5076069;28;20439;-70
2023/09/10 10:58:42;;;;;;;21.48;14.30;;;26.30;99.90;;;;;;5093334;28;20036;-70
2023/09/10 11:01:10;;;;;;;26.08;13.15;;;26.40;99.90;;;;;;5094066;28;20071;-70
2023/09/10 11:03:36;;;;;;;19.80;13.30;;;26.30;99.90;;;;;;5092967;28;20080;-70
2023/09/10 11:06:06;;;;;;;19.35;12.77;;;26.20;99.90;;;;;;5092678;28;20130;-70
2023/09/10 11:08:36;;;;;;;19.23;12.52;;;26.00;99.90;;;;;;5092854;28;20051;-70
2023/09/10 11:11:08;;;;;;;19.00;12.20;;;26.40;99.90;;;;;;5076029;28;20036;-71
2023/09/10 11:13:54;;;;;;;19.40;11.60;;;25.90;99.70;;;;;;5092698;28;20560;-70
2023/09/10 11:16:19;;;;;;;15.77;11.23;;;26.20;99.70;;;;;;5092607;28;20036;-70
2023/09/10 11:18:46;;;;;;;26.05;11.90;;;26.30;99.70;;;;;;5058888;28;20101;-70
2023/09/10 11:21:16;;;;;;;17.80;12.13;;;27.00;99.60;;;;;;5092686;28;20047;-70
2023/09/10 11:23:51;;;;;;;18.10;11.65;;;27.20;99.70;;;;;;5092721;28;20046;-70
2023/09/10 11:26:17;;;;;;;15.25;10.65;;;;;;;;;;5092393;28;20063;-70
2023/09/10 11:28:43;;;;;;;16.25;10.70;;;;;;;;;;5092447;28;20381;-71
2023/09/10 11:31:34;;;;;;;20.95;12.07;;;26.40;94.80;;;;;;5075999;28;20043;-70
2023/09/10 11:34:18;;;;;;;18.73;10.25;;;26.90;99.30;;;;;;5092347;28;20039;-71
2023/09/10 11:36:45;;;;;;;18.45;11.02;;;26.80;99.30;;;;;;5092490;28;20040;-71
2023/09/10 11:39:15;;;;;;;24.08;11.80;;;27.30;99.20;;;;;;5098458;28;20071;-71
2023/09/10 11:41:45;;;;;;;19.80;11.95;;;26.50;96.40;;;;;;5104789;28;20431;-71
2023/09/10 11:44:11;;;;;;;27.75;11.98;;;26.60;99.00;;;;;;5092204;28;20043;-71
2023/09/10 11:46:38;;;;;;;14.43;10.23;;;27.10;98.90;;;;;;5103145;28;20044;-76
2023/09/10 11:49:04;;;;;;;18.77;11.10;;;27.30;98.90;;;;;;5089600;28;20077;-76
2023/09/10 11:51:30;;;;;;;17.25;10.65;;;27.70;98.80;;;;;;5095798;28;20020;-77
2023/09/10 11:53:59;;;;;;;27.48;12.45;;;26.80;93.90;;;;;;5092383;28;20028;-76
2023/09/10 11:56:26;;;;;;;17.85;10.18;;;27.20;95.10;;;;;;5103166;28;20047;-76
2023/09/10 11:58:53;;;;;;;17.88;10.82;;;27.00;98.30;;;;;;5101187;28;20043;-71
2023/09/10 12:01:21;;;;;;;20.73;11.77;;;27.40;98.20;;;;;;5100765;28;20470;-71
2023/09/10 12:03:47;;;;;;;17.20;10.55;;;27.20;98.10;;;;;;5107734;28;20051;-70
2023/09/10 12:06:13;;;;;;;18.75;10.40;;;;;;;;;;5104175;28;20039;-71
2023/09/10 12:08:40;;;;;;;27.83;10.98;;;;;;;;;;5093983;28;20050;-71
2023/09/10 12:11:08;;;;;;;16.38;9.60;;;27.90;98.00;;;;;;5093056;28;20051;-71
2023/09/10 12:13:36;;;;;;;22.65;10.15;;;27.60;97.90;;;;;;5097625;28;20040;-71
2023/09/10 12:16:04;;;;;;;19.92;10.93;;;28.10;93.40;;;;;;5099648;28;20050;-71
2023/09/10 12:18:31;;;;;;;16.42;10.93;;;28.10;97.70;;;;;;5099292;28;20051;-71
2023/09/10 12:20:58;;;;;;;21.40;10.35;;;27.90;97.40;;;;;;5082008;28;20094;-72
2023/09/10 12:23:24;;;;;;;21.60;10.90;;;28.20;97.50;;;;;;5081721;28;20043;-71
2023/09/10 12:25:54;;;;;;;25.90;10.38;;;28.20;97.30;;;;;;5081510;28;20076;-71
2023/09/10 12:28:20;;;;;;;18.58;9.50;;;27.60;94.70;;;;;;5099009;28;20031;-70
2023/09/10 12:30:46;;;;;;;24.70;9.48;;;28.20;97.00;;;;;;5098722;28;20400;-71
2023/09/10 12:33:12;;;;;;;19.63;10.07;;;28.10;97.10;;;;;;5098826;28;20169;-71
2023/09/10 12:35:39;;;;;;;18.55;9.68;;;28.00;92.90;;;;;;5081915;28;20494;-71
2023/09/10 12:38:04;;;;;;;18.15;9.80;;;28.50;93.60;;;;;;5099686;28;20032;-71
2023/09/10 12:40:30;;;;;;;23.95;10.40;;;28.60;96.00;;;;;;5098586;28;20048;-76
2023/09/10 12:42:56;;;;;;;22.30;9.68;;;28.50;96.80;;;;;;5098918;28;20040;-77
2023/09/10 12:45:22;;;;;;;22.58;10.27;;;28.70;96.60;;;;;;5098774;28;20051;-77
2023/09/10 12:47:48;;;;;;;27.02;10.18;;;28.80;96.60;;;;;;5098844;28;20059;-76